Terminal Aerodrome Forecast
Issued by NWS Wilmington, OH

Home | Current Version | Previous Version | Text Only | Print | Product List | Glossary On
Versions: 1 2 3 4 5 6 7 8 9 10 11 12 13 14 15 16 17 18 19 20 21 22 23 24 25
955
FTUS41 KILN 262331
TAFCVG
TAF
KCVG 262331Z 2700/2806 VRB03KT P6SM VCTS BKN050CB
     FM270200 VRB03KT P6SM FEW050 BKN250
     FM271400 16005KT P6SM SCT250
     FM271700 14005KT P6SM SCT050
     FM280000 VRB03KT P6SM SCT250=

USA.gov is the U.S. government's official web portal to all federal, state and local government web resources and services.